Time;durP1;ratioP1;P1;durP2;ratioP2;P2;SDS_P1;SDS_P2;PMS_P1;PMS_P2;Temp;Humidity;BMP_temperature;BMP_pressure;BME280_temperature;BME280_humidity;BME280_pressure;Samples;Min_cycle;Max_cycle;Signal;HPM_P1;HPM_P2
2021/08/16 00:01:34;;;;;;;;;;;17.70;99.90;;;;;;5064524;28;19912;-78
2021/08/16 00:04:00;;;;;;;;;;;17.70;99.90;;;;;;5070083;28;19923;-77
2021/08/16 00:06:26;;;;;;;;;;;17.70;99.90;;;;;;5068236;28;20285;-78
2021/08/16 00:08:51;;;;;;;;;;;17.70;99.90;;;;;;5066380;28;19959;-78
2021/08/16 00:11:17;;;;;;;;;;;17.80;99.90;;;;;;5074226;28;21267;-77
2021/08/16 00:13:42;;;;;;;;;;;17.80;99.90;;;;;;5075326;28;19920;-77
2021/08/16 00:16:08;;;;;;;;;;;17.90;99.90;;;;;;5067248;28;19912;-78
2021/08/16 00:18:34;;;;;;;;;;;17.90;99.90;;;;;;5071398;28;19913;-77
2021/08/16 00:21:00;;;;;;;;;;;17.90;99.90;;;;;;5069681;28;20323;-77
2021/08/16 00:23:26;;;;;;;;;;;18.00;99.90;;;;;;5075364;28;19919;-77
2021/08/16 00:25:52;;;;;;;;;;;18.00;99.90;;;;;;5082586;28;19916;-77
2021/08/16 00:28:17;;;;;;;;;;;18.00;99.90;;;;;;5078231;28;19916;-77
2021/08/16 00:30:43;;;;;;;;;;;18.00;99.90;;;;;;5069835;28;20237;-77
2021/08/16 00:33:08;;;;;;;;;;;18.10;99.90;;;;;;5073598;28;20327;-78
2021/08/16 00:35:34;;;;;;;;;;;18.10;99.90;;;;;;5081526;28;19919;-77
2021/08/16 00:38:00;;;;;;;;;;;18.10;99.90;;;;;;5076693;28;19908;-79
2021/08/16 00:40:26;;;;;;;;;;;18.10;99.90;;;;;;5069027;28;20369;-79
2021/08/16 00:42:51;;;;;;;;;;;18.20;99.90;;;;;;5066416;28;19919;-77
2021/08/16 00:45:17;;;;;;;;;;;18.20;99.90;;;;;;5079038;28;19939;-78
2021/08/16 00:47:42;;;;;;;;;;;18.20;99.90;;;;;;5072931;28;19967;-76
2021/08/16 00:50:09;;;;;;;;;;;18.20;99.90;;;;;;5078228;28;19916;-78
2021/08/16 00:52:35;;;;;;;;;;;18.30;99.90;;;;;;5073888;28;19963;-77
2021/08/16 00:55:01;;;;;;;;;;;18.30;99.90;;;;;;5056954;28;19948;-77
2021/08/16 00:57:28;;;;;;;;;;;18.30;99.90;;;;;;5073273;28;20227;-76
2021/08/16 00:59:53;;;;;;;;;;;18.30;99.90;;;;;;5077886;28;19919;-77
2021/08/16 01:02:19;;;;;;;;;;;18.30;99.90;;;;;;5073108;28;19917;-77
2021/08/16 01:04:44;;;;;;;;;;;18.30;99.90;;;;;;5071263;28;20201;-77
2021/08/16 01:07:12;;;;;;;;;;;18.30;99.90;;;;;;5071943;28;19977;-77
2021/08/16 01:09:37;;;;;;;;;;;18.20;99.90;;;;;;5087253;28;20315;-77
2021/08/16 01:12:03;;;;;;;;;;;18.30;99.90;;;;;;5075817;28;19908;-76
2021/08/16 01:14:29;;;;;;;;;;;18.30;99.90;;;;;;5075069;28;20239;-78
2021/08/16 01:16:54;;;;;;;;;;;18.30;99.90;;;;;;5075021;28;19913;-78
2021/08/16 01:19:21;;;;;;;;;;;18.20;99.90;;;;;;5072147;28;19912;-78
2021/08/16 01:21:46;;;;;;;;;;;18.30;99.90;;;;;;5075553;28;19909;-78
2021/08/16 01:24:12;;;;;;;;;;;18.20;99.90;;;;;;5076910;28;20053;-77
2021/08/16 01:26:37;;;;;;;;;;;18.20;99.90;;;;;;5078114;28;20189;-78
2021/08/16 01:29:04;;;;;;;;;;;18.20;99.90;;;;;;5077331;28;19923;-78
2021/08/16 01:31:29;;;;;;;;;;;18.20;99.90;;;;;;5067374;28;19991;-78
2021/08/16 01:33:55;;;;;;;;;;;18.20;99.90;;;;;;5080329;28;20057;-78
2021/08/16 01:36:21;;;;;;;;;;;18.20;99.90;;;;;;5082504;28;20227;-77
2021/08/16 01:38:46;;;;;;;;;;;18.30;99.90;;;;;;5072641;28;20006;-78
2021/08/16 01:41:12;;;;;;;;;;;18.20;99.90;;;;;;5064344;28;19916;-78
2021/08/16 01:43:37;;;;;;;;;;;18.30;99.90;;;;;;5084895;28;19908;-77
2021/08/16 01:46:04;;;;;;;;;;;18.30;99.90;;;;;;5085839;28;19919;-77
2021/08/16 01:48:29;;;;;;;;;;;18.30;99.90;;;;;;5073706;28;19947;-77
2021/08/16 01:50:56;;;;;;;;;;;18.30;99.90;;;;;;5082464;28;19916;-77
2021/08/16 01:53:22;;;;;;;;;;;18.30;99.90;;;;;;5058810;28;19917;-79
2021/08/16 01:55:47;;;;;;;;;;;18.30;99.90;;;;;;5084409;28;19919;-77
2021/08/16 01:58:13;;;;;;;;;;;18.30;99.90;;;;;;5078649;28;20565;-79
2021/08/16 02:00:39;;;;;;;;;;;18.30;99.90;;;;;;5069793;28;19959;-78
2021/08/16 02:03:05;;;;;;;;;;;18.30;99.90;;;;;;5077356;28;19912;-78
2021/08/16 02:05:30;;;;;;;;;;;18.30;99.90;;;;;;5063026;28;19912;-78
2021/08/16 02:08:00;;;;;;;;;;;18.30;99.90;;;;;;5071449;28;20264;-77
2021/08/16 02:10:25;;;;;;;;;;;18.40;99.90;;;;;;5084601;28;20302;-77
2021/08/16 02:12:51;;;;;;;;;;;18.40;99.90;;;;;;5070279;28;19928;-78
2021/08/16 02:15:17;;;;;;;;;;;18.40;99.90;;;;;;5060081;28;19913;-78
2021/08/16 02:17:42;;;;;;;;;;;18.40;99.90;;;;;;5077879;28;19932;-78
2021/08/16 02:20:08;;;;;;;;;;;18.30;99.90;;;;;;5078521;28;20323;-78
2021/08/16 02:22:34;;;;;;;;;;;18.30;99.90;;;;;;5077059;28;19948;-77
2021/08/16 02:24:59;;;;;;;;;;;18.30;99.90;;;;;;5080012;28;19912;-77
2021/08/16 02:27:25;;;;;;;;;;;18.30;99.90;;;;;;5067310;28;20047;-78
2021/08/16 02:29:51;;;;;;;;;;;18.30;99.90;;;;;;5092277;28;19920;-77
2021/08/16 02:32:16;;;;;;;;;;;18.30;99.90;;;;;;5083542;28;19924;-77
2021/08/16 02:34:42;;;;;;;;;;;18.30;99.90;;;;;;5088236;28;19916;-78
2021/08/16 02:37:08;;;;;;;;;;;18.30;99.90;;;;;;5073111;28;19920;-77
2021/08/16 02:39:33;;;;;;;;;;;18.30;99.90;;;;;;5078026;28;19909;-77
2021/08/16 02:41:59;;;;;;;;;;;18.30;99.90;;;;;;5074364;28;19919;-77
2021/08/16 02:44:24;;;;;;;;;;;18.30;99.90;;;;;;5078088;28;19916;-77
2021/08/16 02:46:50;;;;;;;;;;;18.30;99.90;;;;;;5073933;28;19920;-77
2021/08/16 02:49:16;;;;;;;;;;;18.30;99.90;;;;;;5068362;28;19909;-77
2021/08/16 02:51:41;;;;;;;;;;;18.30;99.90;;;;;;5076674;28;19916;-77
2021/08/16 02:54:07;;;;;;;;;;;18.30;99.90;;;;;;5060205;28;19971;-77
2021/08/16 02:56:32;;;;;;;;;;;18.20;99.90;;;;;;5092935;28;19912;-78
2021/08/16 02:58:58;;;;;;;;;;;18.30;99.90;;;;;;5065733;28;20275;-78
2021/08/16 03:01:23;;;;;;;;;;;18.30;99.90;;;;;;5070665;28;19917;-77
2021/08/16 03:03:49;;;;;;;;;;;18.30;99.90;;;;;;5092477;28;19989;-79
2021/08/16 03:06:15;;;;;;;;;;;18.30;99.90;;;;;;5073968;28;19927;-77
2021/08/16 03:08:40;;;;;;;;;;;18.30;99.90;;;;;;5085290;28;19916;-77
2021/08/16 03:11:06;;;;;;;;;;;18.30;99.90;;;;;;5078357;28;19963;-76
2021/08/16 03:13:33;;;;;;;;;;;18.30;99.90;;;;;;5076092;28;19970;-77
2021/08/16 03:15:59;;;;;;;;;;;18.30;99.90;;;;;;5078007;28;19923;-77
2021/08/16 03:18:24;;;;;;;;;;;18.30;99.90;;;;;;5073046;28;19912;-76
2021/08/16 03:20:52;;;;;;;;;;;18.20;99.90;;;;;;5073312;28;19942;-77
2021/08/16 03:23:18;;;;;;;;;;;18.20;99.90;;;;;;5082619;28;19916;-77
2021/08/16 03:25:43;;;;;;;;;;;18.20;99.90;;;;;;5070156;28;19962;-77
2021/08/16 03:28:09;;;;;;;;;;;18.20;99.90;;;;;;5072797;28;19920;-78
2021/08/16 03:30:34;;;;;;;;;;;18.20;99.90;;;;;;5076274;28;19952;-77
2021/08/16 03:33:00;;;;;;;;;;;18.10;99.90;;;;;;5084450;28;20286;-77
2021/08/16 03:35:26;;;;;;;;;;;18.10;99.90;;;;;;5081141;28;19925;-78
2021/08/16 03:37:51;;;;;;;;;;;18.20;99.90;;;;;;5084407;28;20230;-78
2021/08/16 03:40:17;;;;;;;;;;;18.10;99.90;;;;;;5075044;28;19958;-78
2021/08/16 03:42:43;;;;;;;;;;;18.10;99.90;;;;;;5067701;28;20223;-76
2021/08/16 03:45:10;;;;;;;;;;;18.20;99.90;;;;;;5074638;28;21281;-76
2021/08/16 03:47:36;;;;;;;;;;;18.10;99.90;;;;;;5074403;28;19919;-77
2021/08/16 03:50:02;;;;;;;;;;;18.10;99.90;;;;;;5071853;28;19915;-78
2021/08/16 03:52:27;;;;;;;;;;;18.10;99.90;;;;;;5060231;28;19913;-77
2021/08/16 03:54:53;;;;;;;;;;;18.10;99.90;;;;;;5062001;28;19909;-78
2021/08/16 03:57:19;;;;;;;;;;;18.10;99.90;;;;;;5087825;28;20227;-77
2021/08/16 03:59:44;;;;;;;;;;;18.10;99.90;;;;;;5083731;28;19915;-78
2021/08/16 04:02:10;;;;;;;;;;;18.10;99.90;;;;;;5075300;28;19935;-77
2021/08/16 04:04:35;;;;;;;;;;;18.00;99.90;;;;;;5068060;28;19920;-77
2021/08/16 04:07:01;;;;;;;;;;;18.00;99.90;;;;;;5088086;28;19981;-77
2021/08/16 04:09:26;;;;;;;;;;;18.00;99.90;;;;;;5078146;28;20485;-76
2021/08/16 04:11:52;;;;;;;;;;;18.00;99.90;;;;;;5075205;28;19916;-76
2021/08/16 04:14:17;;;;;;;;;;;18.00;99.90;;;;;;5062069;28;19936;-77
2021/08/16 04:16:44;;;;;;;;;;;18.00;99.90;;;;;;5074506;28;19912;-77
2021/08/16 04:19:10;;;;;;;;;;;18.00;99.90;;;;;;5076018;28;19916;-77
2021/08/16 04:21:35;;;;;;;;;;;18.00;99.90;;;;;;5069055;28;19909;-77
2021/08/16 04:24:01;;;;;;;;;;;18.00;99.90;;;;;;5080796;28;19912;-76
2021/08/16 04:26:26;;;;;;;;;;;17.90;99.90;;;;;;5066714;28;19916;-76
2021/08/16 04:28:52;;;;;;;;;;;17.90;99.90;;;;;;5074918;28;19996;-78
2021/08/16 04:31:20;;;;;;;;;;;17.90;99.90;;;;;;5073459;28;20337;-77
2021/08/16 04:33:45;;;;;;;;;;;17.80;99.90;;;;;;5075197;28;19928;-76
2021/08/16 04:36:11;;;;;;;;;;;17.60;99.90;;;;;;5069996;28;19912;-79
2021/08/16 04:38:36;;;;;;;;;;;17.50;99.90;;;;;;5066415;28;19930;-76
2021/08/16 04:41:02;;;;;;;;;;;17.50;99.90;;;;;;5060810;28;19936;-77
2021/08/16 04:43:27;;;;;;;;;;;17.50;99.90;;;;;;5068118;28;20465;-76
2021/08/16 04:45:53;;;;;;;;;;;17.40;99.90;;;;;;5087441;28;19916;-76
2021/08/16 04:48:19;;;;;;;;;;;17.40;99.90;;;;;;5071028;28;19948;-78
2021/08/16 04:50:44;;;;;;;;;;;17.30;99.90;;;;;;5087019;28;19913;-77
2021/08/16 04:53:10;;;;;;;;;;;17.30;99.90;;;;;;5069810;28;19921;-77
2021/08/16 04:55:35;;;;;;;;;;;17.30;99.90;;;;;;5074519;28;19920;-76
2021/08/16 04:58:01;;;;;;;;;;;17.20;99.90;;;;;;5073758;28;19931;-76
2021/08/16 05:00:27;;;;;;;;;;;17.20;99.90;;;;;;5072015;28;19927;-77
2021/08/16 05:02:53;;;;;;;;;;;17.20;99.90;;;;;;5071865;28;20007;-77
2021/08/16 05:05:21;;;;;;;;;;;17.20;99.90;;;;;;5072180;28;20271;-76
2021/08/16 05:07:50;;;;;;;;;;;17.20;99.90;;;;;;5071847;28;19917;-79
2021/08/16 05:10:16;;;;;;;;;;;17.20;99.90;;;;;;5071625;28;20291;-77
2021/08/16 05:12:42;;;;;;;;;;;17.10;99.90;;;;;;5072084;28;19966;-76
2021/08/16 05:15:07;;;;;;;;;;;17.10;99.90;;;;;;5070186;28;21265;-77
2021/08/16 05:17:34;;;;;;;;;;;17.10;99.90;;;;;;5070601;28;19913;-76
2021/08/16 05:20:00;;;;;;;;;;;17.10;99.90;;;;;;5071746;28;19921;-77
2021/08/16 05:22:26;;;;;;;;;;;17.10;99.90;;;;;;5070528;28;19916;-77
2021/08/16 05:24:51;;;;;;;;;;;17.10;99.90;;;;;;5070236;28;19936;-76
2021/08/16 05:27:17;;;;;;;;;;;17.10;99.90;;;;;;5071083;28;20000;-77
2021/08/16 05:29:42;;;;;;;;;;;17.10;99.90;;;;;;5072548;28;19913;-77
2021/08/16 05:32:09;;;;;;;;;;;17.20;99.90;;;;;;5070914;28;20338;-77
2021/08/16 05:34:35;;;;;;;;;;;17.20;99.90;;;;;;5072228;28;20337;-77
2021/08/16 05:37:01;;;;;;;;;;;17.20;99.90;;;;;;5070054;28;19920;-77
2021/08/16 05:39:26;;;;;;;;;;;17.30;99.90;;;;;;5071889;28;20333;-78
2021/08/16 05:41:52;;;;;;;;;;;17.20;99.90;;;;;;5070243;28;20306;-78
2021/08/16 05:44:18;;;;;;;;;;;17.30;99.90;;;;;;5072394;28;20388;-77
2021/08/16 05:46:43;;;;;;;;;;;17.30;99.90;;;;;;5069126;28;20012;-77
2021/08/16 05:49:09;;;;;;;;;;;17.30;99.90;;;;;;5072562;28;19916;-78
2021/08/16 05:51:34;;;;;;;;;;;17.30;99.90;;;;;;5076384;28;19916;-77
2021/08/16 05:54:00;;;;;;;;;;;17.30;99.90;;;;;;5074961;28;19921;-78
2021/08/16 05:56:25;;;;;;;;;;;17.30;99.90;;;;;;5075818;28;19966;-76
2021/08/16 05:58:51;;;;;;;;;;;17.30;99.90;;;;;;5072452;28;21107;-77
2021/08/16 06:01:17;;;;;;;;;;;17.20;99.90;;;;;;5075347;28;20037;-83
2021/08/16 06:03:43;;;;;;;;;;;17.10;99.90;;;;;;5076209;28;19927;-78
2021/08/16 06:06:09;;;;;;;;;;;16.90;99.90;;;;;;5076198;28;19912;-78
2021/08/16 06:08:35;;;;;;;;;;;16.80;99.90;;;;;;5076039;28;20569;-81
2021/08/16 06:11:02;;;;;;;;;;;16.80;99.90;;;;;;5080683;28;20282;-78
2021/08/16 06:13:28;;;;;;;;;;;16.70;99.90;;;;;;5075727;28;19923;-79
2021/08/16 06:15:53;;;;;;;;;;;16.70;99.90;;;;;;5075876;28;20303;-83
2021/08/16 06:18:19;;;;;;;;;;;16.60;99.90;;;;;;5075767;28;19924;-79
2021/08/16 06:20:46;;;;;;;;;;;16.60;99.90;;;;;;5075012;28;20004;-86
2021/08/16 06:23:12;;;;;;;;;;;16.60;99.90;;;;;;5072125;28;19928;-90
2021/08/16 06:25:38;;;;;;;;;;;16.60;99.90;;;;;;5078220;28;19912;-79
2021/08/16 06:28:04;;;;;;;;;;;16.70;99.90;;;;;;5076267;28;20033;-84
2021/08/16 06:30:29;;;;;;;;;;;16.60;99.90;;;;;;5078355;28;19970;-83
2021/08/16 06:32:55;;;;;;;;;;;16.60;99.90;;;;;;5075217;28;20236;-83
2021/08/16 06:35:20;;;;;;;;;;;16.50;99.90;;;;;;5075857;28;19913;-76
2021/08/16 06:37:47;;;;;;;;;;;16.50;99.90;;;;;;5073872;28;20057;-81
2021/08/16 06:40:13;;;;;;;;;;;16.50;99.90;;;;;;5074163;28;19916;-79
2021/08/16 06:42:39;;;;;;;;;;;16.50;99.90;;;;;;5075415;28;19948;-79
2021/08/16 06:45:05;;;;;;;;;;;16.50;99.90;;;;;;5074729;28;20008;-83
2021/08/16 06:47:31;;;;;;;;;;;16.50;99.90;;;;;;5076013;28;19913;-81
2021/08/16 06:49:57;;;;;;;;;;;16.50;99.90;;;;;;5074892;28;19912;-81
2021/08/16 06:52:22;;;;;;;;;;;16.50;99.90;;;;;;5073896;28;19917;-80
2021/08/16 06:54:48;;;;;;;;;;;16.50;99.90;;;;;;5073425;28;19962;-81
2021/08/16 06:57:14;;;;;;;;;;;16.50;99.90;;;;;;5076103;28;19913;-82
2021/08/16 06:59:39;;;;;;;;;;;16.50;99.90;;;;;;5074558;28;19916;-86
2021/08/16 07:02:05;;;;;;;;;;;16.50;99.90;;;;;;5071750;28;20951;-84
2021/08/16 07:04:31;;;;;;;;;;;16.40;99.90;;;;;;5072865;28;19951;-83
2021/08/16 07:06:56;;;;;;;;;;;16.50;99.90;;;;;;5072316;28;20272;-82
2021/08/16 07:09:22;;;;;;;;;;;16.50;99.90;;;;;;5075887;28;19917;-86
2021/08/16 07:11:47;;;;;;;;;;;16.50;99.90;;;;;;5071652;28;19916;-79
2021/08/16 07:14:13;;;;;;;;;;;16.50;99.90;;;;;;5074336;28;19916;-84
2021/08/16 07:16:39;;;;;;;;;;;16.40;99.90;;;;;;5075863;28;19919;-82
2021/08/16 07:19:04;;;;;;;;;;;16.40;99.90;;;;;;5074910;28;19948;-85
2021/08/16 07:21:30;;;;;;;;;;;16.50;99.90;;;;;;5076322;28;19923;-78
2021/08/16 07:23:55;;;;;;;;;;;16.40;99.90;;;;;;5075059;28;19917;-81
2021/08/16 07:26:21;;;;;;;;;;;16.40;99.90;;;;;;5074538;28;19913;-79
2021/08/16 07:28:48;;;;;;;;;;;16.50;99.90;;;;;;5075313;28;19927;-81
2021/08/16 07:31:13;;;;;;;;;;;16.50;99.90;;;;;;5072878;28;19959;-82
2021/08/16 07:33:39;;;;;;;;;;;16.40;99.90;;;;;;5073203;28;19968;-85
2021/08/16 07:36:05;;;;;;;;;;;16.50;99.90;;;;;;5077734;28;19912;-80
2021/08/16 07:38:31;;;;;;;;;;;16.50;99.90;;;;;;5069208;28;20223;-79
2021/08/16 07:40:57;;;;;;;;;;;16.50;99.90;;;;;;5074463;28;20023;-82
2021/08/16 07:43:22;;;;;;;;;;;16.60;99.90;;;;;;5077656;28;19924;-80
2021/08/16 07:45:49;;;;;;;;;;;16.60;99.90;;;;;;5074445;28;19920;-81
2021/08/16 07:48:14;;;;;;;;;;;16.70;99.90;;;;;;5072906;28;19923;-80
2021/08/16 07:50:40;;;;;;;;;;;16.80;99.90;;;;;;5074353;28;19916;-79
2021/08/16 07:53:06;;;;;;;;;;;16.90;99.90;;;;;;5074619;28;20299;-79
2021/08/16 07:55:32;;;;;;;;;;;16.90;99.90;;;;;;5072533;28;20218;-76
2021/08/16 07:57:57;;;;;;;;;;;17.00;99.90;;;;;;5073935;28;19911;-77
2021/08/16 08:00:23;;;;;;;;;;;17.10;99.90;;;;;;5074540;28;19916;-81
2021/08/16 08:02:49;;;;;;;;;;;17.10;99.90;;;;;;5075326;28;20000;-87
2021/08/16 08:05:18;;;;;;;;;;;17.20;99.90;;;;;;5073528;28;19917;-79
2021/08/16 08:07:44;;;;;;;;;;;17.30;99.90;;;;;;5072579;28;19999;-81
2021/08/16 08:10:10;;;;;;;;;;;17.30;99.90;;;;;;5073854;28;20004;-78
2021/08/16 08:12:36;;;;;;;;;;;17.30;99.90;;;;;;5073362;28;19935;-80
2021/08/16 08:15:06;;;;;;;;;;;17.20;99.90;;;;;;5074018;28;20318;-83
2021/08/16 08:17:31;;;;;;;;;;;17.10;99.90;;;;;;5073508;28;19967;-88
2021/08/16 08:19:57;;;;;;;;;;;17.00;99.90;;;;;;5074949;28;19916;-86
2021/08/16 08:22:23;;;;;;;;;;;16.80;99.90;;;;;;5075408;28;20273;-87
2021/08/16 08:24:49;;;;;;;;;;;16.90;99.90;;;;;;5073415;28;19913;-83
2021/08/16 08:27:14;;;;;;;;;;;16.80;99.90;;;;;;5074296;28;19991;-89
2021/08/16 08:29:41;;;;;;;;;;;16.70;99.90;;;;;;5074132;28;20316;-82
2021/08/16 08:32:06;;;;;;;;;;;16.60;99.90;;;;;;5073878;28;20050;-84
2021/08/16 08:34:32;;;;;;;;;;;16.60;99.90;;;;;;5073234;28;20313;-84
2021/08/16 08:36:58;;;;;;;;;;;16.60;99.90;;;;;;5068782;28;20331;-89
2021/08/16 08:39:23;;;;;;;;;;;16.60;99.90;;;;;;5075121;28;19918;-83
2021/08/16 08:41:53;;;;;;;;;;;16.70;99.90;;;;;;5076677;28;19982;-83
2021/08/16 08:44:19;;;;;;;;;;;16.60;99.90;;;;;;5069405;28;19913;-80
2021/08/16 08:46:44;;;;;;;;;;;16.50;99.90;;;;;;5072184;28;20295;-84
2021/08/16 08:49:10;;;;;;;;;;;16.40;99.90;;;;;;5072125;28;19917;-83
2021/08/16 08:51:36;;;;;;;;;;;16.40;99.90;;;;;;5072342;28;19919;-78
2021/08/16 08:54:05;;;;;;;;;;;16.30;99.90;;;;;;5070873;28;19916;-81
2021/08/16 08:56:31;;;;;;;;;;;16.30;99.90;;;;;;5072052;28;19912;-79
2021/08/16 08:58:57;;;;;;;;;;;16.30;99.90;;;;;;5071062;28;20303;-84
2021/08/16 09:01:23;;;;;;;;;;;16.20;99.90;;;;;;5073120;28;20172;-85
2021/08/16 09:03:50;;;;;;;;;;;16.30;99.90;;;;;;5072214;28;20362;-85
2021/08/16 09:06:26;;;;;;;;;;;16.30;99.90;;;;;;5071749;28;20706;-86
2021/08/16 09:08:51;;;;;;;;;;;16.50;99.90;;;;;;5069001;28;19970;-83
2021/08/16 09:11:17;;;;;;;;;;;17.00;99.90;;;;;;5076470;28;20303;-81
2021/08/16 09:13:55;;;;;;;;;;;17.30;99.90;;;;;;5072014;28;20019;-78
2021/08/16 09:16:21;;;;;;;;;;;17.70;99.90;;;;;;5073297;28;20007;-79
2021/08/16 09:18:46;;;;;;;;;;;17.90;99.90;;;;;;5071636;28;19947;-82
2021/08/16 09:21:13;;;;;;;;;;;18.00;99.90;;;;;;5070055;28;19967;-83
2021/08/16 09:23:40;;;;;;;;;;;18.20;99.90;;;;;;5087739;28;19916;-78
2021/08/16 09:26:07;;;;;;;;;;;18.40;99.90;;;;;;5071105;28;19917;-81
2021/08/16 09:28:32;;;;;;;;;;;18.40;99.90;;;;;;5069000;28;20328;-80
2021/08/16 09:31:11;;;;;;;;;;;18.40;99.90;;;;;;5070959;28;20003;-80
2021/08/16 09:33:37;;;;;;;;;;;18.30;99.90;;;;;;5068935;28;19928;-77
2021/08/16 09:36:05;;;;;;;;;;;18.10;99.90;;;;;;5071404;28;20202;-79
2021/08/16 09:38:41;;;;;;;;;;;17.80;99.90;;;;;;5070656;28;20313;-76
2021/08/16 09:41:18;;;;;;;;;;;17.60;99.90;;;;;;5070827;28;19916;-79
2021/08/16 09:43:44;;;;;;;;;;;17.40;99.90;;;;;;5062289;28;19967;-79
2021/08/16 09:46:14;;;;;;;;;;;17.40;99.90;;;;;;5063362;28;20250;-81
2021/08/16 09:48:40;;;;;;;;;;;17.60;99.90;;;;;;5080455;28;19930;-84
2021/08/16 09:51:05;;;;;;;;;;;17.70;99.90;;;;;;5066602;28;19924;-75
2021/08/16 09:53:32;;;;;;;;;;;17.60;99.90;;;;;;5068711;28;19920;-80
2021/08/16 09:56:01;;;;;;;;;;;17.50;99.90;;;;;;5073836;28;19919;-77
2021/08/16 09:58:27;;;;;;;;;;;17.10;99.90;;;;;;5064556;28;20490;-83
2021/08/16 10:00:53;;;;;;;;;;;17.00;99.90;;;;;;5067835;28;19916;-79
2021/08/16 10:03:19;;;;;;;;;;;17.00;99.90;;;;;;5063347;28;20371;-80
2021/08/16 10:05:49;;;;;;;;;;;17.00;99.90;;;;;;5069679;28;20211;-85
2021/08/16 10:08:24;;;;;;;;;;;17.20;99.90;;;;;;5066325;28;19920;-82
2021/08/16 10:10:54;;;;;;;;;;;17.30;99.90;;;;;;5068699;28;19913;-78
2021/08/16 10:13:23;;;;;;;;;;;17.30;99.90;;;;;;5068077;28;19927;-79
2021/08/16 10:16:00;;;;;;;;;;;17.10;99.90;;;;;;5071731;28;19970;-79
2021/08/16 10:18:33;;;;;;;;;;;16.80;99.90;;;;;;5071428;28;20295;-79
2021/08/16 10:21:00;;;;;;;;;;;16.20;99.90;;;;;;5071562;28;19912;-78
2021/08/16 10:23:26;;;;;;;;;;;15.80;99.90;;;;;;5071362;28;20192;-81
2021/08/16 10:25:53;;;;;;;;;;;15.60;99.90;;;;;;5071431;28;19920;-82
2021/08/16 10:28:22;;;;;;;;;;;15.50;99.90;;;;;;5069041;28;19951;-83
2021/08/16 10:30:48;;;;;;;;;;;15.60;99.90;;;;;;5072825;28;19991;-79
2021/08/16 10:33:13;;;;;;;;;;;15.70;99.90;;;;;;5069814;28;20015;-79
2021/08/16 10:35:40;;;;;;;;;;;15.80;99.90;;;;;;5070821;28;19913;-79
2021/08/16 10:38:11;;;;;;;;;;;15.90;99.90;;;;;;5074902;28;19963;-80
2021/08/16 10:40:41;;;;;;;;;;;16.00;99.90;;;;;;5074200;28;19922;-80
2021/08/16 10:43:10;;;;;;;;;;;16.20;99.90;;;;;;5092071;28;19916;-78
2021/08/16 10:45:47;;;;;;;;;;;16.30;99.90;;;;;;5075542;28;19919;-82
2021/08/16 10:48:21;;;;;;;;;;;16.30;99.90;;;;;;5065754;28;20215;-79
2021/08/16 10:50:46;;;;;;;;;;;16.30;99.90;;;;;;5074502;28;20401;-81
2021/08/16 10:53:14;;;;;;;;;;;16.20;99.90;;;;;;5075501;28;19924;-82
2021/08/16 10:55:41;;;;;;;;;;;16.20;99.90;;;;;;5071490;28;19963;-81
2021/08/16 10:58:11;;;;;;;;;;;16.20;99.90;;;;;;5063236;28;19913;-78
2021/08/16 11:00:37;;;;;;;;;;;16.20;99.90;;;;;;5063610;28;19923;-79
2021/08/16 11:03:03;;;;;;;;;;;16.10;99.90;;;;;;5062731;28;20011;-83
2021/08/16 11:05:33;;;;;;;;;;;16.10;99.90;;;;;;5067014;28;20007;-82
2021/08/16 11:08:02;;;;;;;;;;;16.10;99.90;;;;;;5078869;28;19924;-80
2021/08/16 11:10:44;;;;;;;;;;;16.10;99.90;;;;;;5084067;28;19962;-85
2021/08/16 11:13:10;;;;;;;;;;;16.20;99.90;;;;;;5061473;28;19960;-82
2021/08/16 11:15:38;;;;;;;;;;;16.30;99.90;;;;;;5065689;28;19999;-81
2021/08/16 11:18:12;;;;;;;;;;;16.20;99.90;;;;;;5061256;28;19916;-77
2021/08/16 11:20:38;;;;;;;;;;;15.90;99.90;;;;;;5067493;28;19913;-82
2021/08/16 11:23:04;;;;;;;;;;;15.80;99.90;;;;;;5063194;28;20372;-81
2021/08/16 11:25:29;;;;;;;;;;;15.80;99.90;;;;;;5065085;28;19930;-79
2021/08/16 11:27:59;;;;;;;;;;;15.80;99.90;;;;;;5067229;28;20407;-83
2021/08/16 11:30:25;;;;;;;;;;;16.00;99.90;;;;;;5058025;28;19913;-78
2021/08/16 11:32:52;;;;;;;;;;;16.10;99.90;;;;;;5058380;28;20380;-81
2021/08/16 11:35:18;;;;;;;;;;;16.30;99.90;;;;;;5061357;28;19913;-80
2021/08/16 11:37:48;;;;;;;;;;;16.40;99.90;;;;;;5079904;28;19920;-76
2021/08/16 11:40:14;;;;;;;;;;;16.50;99.90;;;;;;5077992;28;20012;-80
2021/08/16 11:42:40;;;;;;;;;;;16.60;99.90;;;;;;5061013;28;19963;-76
2021/08/16 11:45:06;;;;;;;;;;;16.50;99.90;;;;;;5060186;28;20258;-78
2021/08/16 11:47:33;;;;;;;;;;;16.50;99.90;;;;;;5062079;28;20335;-77
2021/08/16 11:49:59;;;;;;;;;;;16.50;99.90;;;;;;5062006;28;19913;-76
2021/08/16 11:52:25;;;;;;;;;;;16.60;99.90;;;;;;5061479;28;20314;-77
2021/08/16 11:54:51;;;;;;;;;;;16.50;99.90;;;;;;5073050;28;20015;-77
2021/08/16 11:57:19;;;;;;;;;;;16.50;99.90;;;;;;5068501;28;20246;-78
2021/08/16 11:59:49;;;;;;;;;;;16.40;99.90;;;;;;5071062;28;19920;-78
2021/08/16 12:02:15;;;;;;;;;;;16.30;99.90;;;;;;5066428;28;20008;-75
2021/08/16 12:04:40;;;;;;;;;;;16.30;99.90;;;;;;5072974;28;20365;-77
2021/08/16 12:07:06;;;;;;;;;;;16.30;99.90;;;;;;5071033;28;19916;-77
2021/08/16 12:09:36;;;;;;;;;;;16.20;99.90;;;;;;5072389;28;20479;-76
2021/08/16 12:12:04;;;;;;;;;;;16.20;99.90;;;;;;5075590;28;19916;-76
2021/08/16 12:14:31;;;;;;;;;;;16.10;99.90;;;;;;5070451;28;19933;-76
2021/08/16 12:16:57;;;;;;;;;;;16.10;99.90;;;;;;5057453;28;19916;-77
2021/08/16 12:19:23;;;;;;;;;;;16.10;99.90;;;;;;5072272;28;19984;-77
2021/08/16 12:21:59;;;;;;;;;;;16.10;99.90;;;;;;5069258;28;19958;-76
2021/08/16 12:24:25;;;;;;;;;;;16.20;99.90;;;;;;5070757;28;20003;-77
2021/08/16 12:26:57;;;;;;;;;;;16.30;99.90;;;;;;5083618;28;20011;-78
2021/08/16 12:29:23;;;;;;;;;;;16.40;99.90;;;;;;5072102;28;19916;-76
2021/08/16 12:31:48;;;;;;;;;;;16.30;99.90;;;;;;5075072;28;20314;-77
2021/08/16 12:34:14;;;;;;;;;;;16.30;99.90;;;;;;5072328;28;20253;-79
2021/08/16 12:36:41;;;;;;;;;;;16.30;99.90;;;;;;5071898;28;20401;-76
2021/08/16 12:39:13;;;;;;;;;;;16.30;99.90;;;;;;5068747;28;19920;-78
2021/08/16 12:41:39;;;;;;;;;;;16.30;99.90;;;;;;5070418;28;19913;-75
2021/08/16 12:44:15;;;;;;;;;;;16.20;99.90;;;;;;5072816;28;19912;-76
2021/08/16 12:46:41;;;;;;;;;;;16.20;99.90;;;;;;5069421;28;19933;-78
2021/08/16 12:49:17;;;;;;;;;;;16.20;99.90;;;;;;5073238;28;19916;-80
2021/08/16 12:51:42;;;;;;;;;;;16.20;99.90;;;;;;5071760;28;19921;-77
2021/08/16 12:54:08;;;;;;;;;;;16.20;99.90;;;;;;5072705;28;20315;-76
2021/08/16 12:56:34;;;;;;;;;;;16.10;99.90;;;;;;5071654;28;19943;-77
2021/08/16 12:58:59;;;;;;;;;;;16.10;99.90;;;;;;5067663;28;19983;-77
2021/08/16 13:01:25;;;;;;;;;;;16.10;99.90;;;;;;5070378;28;19938;-78
2021/08/16 13:03:52;;;;;;;;;;;16.10;99.90;;;;;;5071509;28;20015;-77
2021/08/16 13:06:17;;;;;;;;;;;16.20;99.90;;;;;;5072622;28;19928;-77
2021/08/16 13:08:44;;;;;;;;;;;16.20;99.90;;;;;;5070765;28;19920;-76
2021/08/16 13:11:11;;;;;;;;;;;16.30;99.90;;;;;;5071743;28;20015;-77
2021/08/16 13:13:37;;;;;;;;;;;16.30;99.90;;;;;;5071130;28;19928;-75
2021/08/16 13:16:03;;;;;;;;;;;16.30;99.90;;;;;;5070259;28;19912;-76
2021/08/16 13:18:29;;;;;;;;;;;16.40;99.90;;;;;;5071623;28;19919;-79
2021/08/16 13:20:58;;;;;;;;;;;16.40;99.90;;;;;;5072724;28;19912;-77
2021/08/16 13:23:24;;;;;;;;;;;16.40;99.90;;;;;;5074049;28;20229;-79
2021/08/16 13:25:49;;;;;;;;;;;16.40;99.90;;;;;;5072210;28;19920;-81
2021/08/16 13:28:15;;;;;;;;;;;16.50;99.90;;;;;;5069993;28;20394;-78
2021/08/16 13:30:41;;;;;;;;;;;16.40;99.90;;;;;;5072791;28;20007;-78
2021/08/16 13:33:06;;;;;;;;;;;16.20;99.90;;;;;;5072731;28;19928;-77
2021/08/16 13:35:32;;;;;;;;;;;16.20;99.90;;;;;;5072724;28;20041;-77
2021/08/16 13:37:58;;;;;;;;;;;16.10;99.90;;;;;;5072698;28;19912;-76
2021/08/16 13:40:23;;;;;;;;;;;16.20;99.90;;;;;;5070442;28;19913;-78
2021/08/16 13:42:49;;;;;;;;;;;16.10;99.90;;;;;;5072217;28;20219;-79
2021/08/16 13:45:14;;;;;;;;;;;16.10;99.90;;;;;;5070972;28;19917;-77
2021/08/16 13:47:40;;;;;;;;;;;16.20;99.90;;;;;;5069820;28;19916;-76
2021/08/16 13:50:06;;;;;;;;;;;16.20;99.90;;;;;;5067951;28;20189;-76
2021/08/16 13:52:31;;;;;;;;;;;16.20;99.90;;;;;;5072928;28;19921;-76
2021/08/16 13:54:58;;;;;;;;;;;16.20;99.90;;;;;;5070657;28;19943;-79
2021/08/16 13:57:24;;;;;;;;;;;16.30;99.90;;;;;;5063712;28;20185;-77
2021/08/16 13:59:49;;;;;;;;;;;16.30;99.90;;;;;;5072249;28;19920;-76
2021/08/16 14:02:15;;;;;;;;;;;16.30;99.90;;;;;;5069816;28;19981;-78
2021/08/16 14:04:40;;;;;;;;;;;16.30;99.90;;;;;;5059615;28;19916;-76
2021/08/16 14:07:06;;;;;;;;;;;16.20;99.90;;;;;;5071074;28;20011;-77
2021/08/16 14:09:32;;;;;;;;;;;16.30;99.90;;;;;;5067180;28;20596;-76
2021/08/16 14:12:01;;;;;;;;;;;16.30;99.90;;;;;;5078409;28;19923;-80